createdAt,value
2022-11-21T00:01:16.960Z,99324.63
2022-11-21T00:03:45.102Z,99309.09
2022-11-21T00:06:15.005Z,99312.44
2022-11-21T00:08:43.903Z,99320.25
2022-11-21T00:11:12.478Z,99316.84
2022-11-21T00:13:41.021Z,99302.97
2022-11-21T00:16:11.994Z,99290.94
2022-11-21T00:18:41.802Z,99298.72
2022-11-21T00:21:13.270Z,99270.94
2022-11-21T00:23:43.101Z,99277.03
2022-11-21T00:26:13.382Z,99287.47
2022-11-21T00:28:42.402Z,99261.50
2022-11-21T00:31:11.063Z,99282.28
2022-11-21T00:33:40.539Z,99274.47
2022-11-21T00:36:09.597Z,99261.53
2022-11-21T00:38:38.668Z,99275.41
2022-11-21T00:41:08.576Z,99261.56
2022-11-21T00:43:37.466Z,99263.31
2022-11-21T00:46:05.956Z,99257.28
2022-11-21T00:48:34.491Z,99252.97
2022-11-21T00:51:03.078Z,99263.34
2022-11-21T00:53:31.832Z,99247.72
2022-11-21T00:56:00.255Z,99242.56
2022-11-21T00:58:30.651Z,99246.00
2022-11-21T01:01:07.462Z,99236.47
2022-11-21T01:03:36.484Z,99228.72
2022-11-21T01:06:06.908Z,99229.56
2022-11-21T01:08:37.378Z,99216.63
2022-11-21T01:11:06.586Z,99213.19
2022-11-21T01:13:37.356Z,99212.31
2022-11-21T01:16:07.063Z,99209.75
2022-11-21T01:18:36.100Z,99205.41
2022-11-21T01:21:05.704Z,99195.94
2022-11-21T01:23:34.075Z,99195.91
2022-11-21T01:26:06.930Z,99197.59
2022-11-21T01:28:37.230Z,99183.75
2022-11-21T01:31:07.267Z,99181.13
2022-11-21T01:33:36.108Z,99187.19
2022-11-21T01:36:09.312Z,99185.47
2022-11-21T01:38:38.128Z,99176.75
2022-11-21T01:41:06.888Z,99178.53
2022-11-21T01:43:37.107Z,99184.56
2022-11-21T01:46:12.225Z,99178.53
2022-11-21T01:48:50.176Z,99177.59
2022-11-21T01:51:22.914Z,99168.97
2022-11-21T01:53:57.082Z,99152.44
2022-11-21T01:56:26.734Z,99178.50
2022-11-21T01:59:00.220Z,99181.94
2022-11-21T02:01:29.942Z,99176.78
2022-11-21T02:04:00.715Z,99175.03
2022-11-21T02:06:29.791Z,99175.03
2022-11-21T02:08:58.983Z,99159.53
2022-11-21T02:11:32.989Z,99172.47
2022-11-21T02:14:03.127Z,99163.00
2022-11-21T02:16:32.164Z,99170.78
2022-11-21T02:19:00.520Z,99168.16
2022-11-21T02:21:51.051Z,99152.56
2022-11-21T02:24:27.591Z,99160.38
2022-11-21T02:26:57.253Z,99163.06
2022-11-21T02:29:25.492Z,99154.41
2022-11-21T02:31:54.069Z,99167.38
2022-11-21T02:34:22.304Z,99168.25
2022-11-21T02:36:50.369Z,99147.44
2022-11-21T02:39:24.080Z,99152.66
2022-11-21T02:42:04.708Z,99153.50
2022-11-21T02:44:40.527Z,99150.03
2022-11-21T02:47:08.712Z,99147.47
2022-11-21T02:49:44.440Z,99146.66
2022-11-21T02:52:12.799Z,99140.63
2022-11-21T02:54:41.134Z,99121.63
2022-11-21T02:57:10.793Z,99128.53
2022-11-21T02:59:39.203Z,99133.75
2022-11-21T03:02:10.482Z,99131.97
2022-11-21T03:04:38.715Z,99111.22
2022-11-21T03:07:07.362Z,99117.28
2022-11-21T03:09:35.660Z,99118.19
2022-11-21T03:12:08.397Z,99111.25
2022-11-21T03:14:38.920Z,99097.41
2022-11-21T03:17:07.098Z,99109.53
2022-11-21T03:19:35.738Z,99119.91
2022-11-21T03:22:04.203Z,99105.25
2022-11-21T03:24:32.287Z,99106.13
2022-11-21T03:27:00.467Z,99104.41
2022-11-21T03:29:28.604Z,99109.56
2022-11-21T03:31:58.297Z,99120.78
2022-11-21T03:34:27.246Z,99095.63
2022-11-21T03:36:55.683Z,99114.72
2022-11-21T03:39:24.010Z,99117.31
2022-11-21T03:41:52.241Z,99111.28
2022-11-21T03:44:20.573Z,99113.94
2022-11-21T03:46:49.110Z,99104.44
2022-11-21T03:49:20.409Z,99101.84
2022-11-21T03:51:48.781Z,99100.97
2022-11-21T03:54:16.955Z,99091.44
2022-11-21T03:56:45.443Z,99095.78
2022-11-21T03:59:13.602Z,99101.84
2022-11-21T04:01:42.215Z,99094.09
2022-11-21T04:04:10.510Z,99086.25
2022-11-21T04:06:40.177Z,99099.25
2022-11-21T04:09:08.411Z,99090.59
2022-11-21T04:11:36.820Z,99101.84
2022-11-21T04:14:05.232Z,99100.97
2022-11-21T04:16:33.392Z,99101.84
2022-11-21T04:19:01.778Z,99095.75
2022-11-21T04:21:30.049Z,99047.31
2022-11-21T04:23:59.606Z,99096.69
2022-11-21T04:26:28.205Z,99086.31
2022-11-21T04:28:56.823Z,99095.88
2022-11-21T04:31:25.081Z,99101.06
2022-11-21T04:33:53.552Z,99099.31
2022-11-21T04:36:22.040Z,99071.63
2022-11-21T04:38:50.281Z,99086.34
2022-11-21T04:41:19.944Z,99092.44
2022-11-21T04:43:48.235Z,99097.63
2022-11-21T04:46:16.332Z,99094.16
2022-11-21T04:48:44.598Z,99100.19
2022-11-21T04:51:13.027Z,99106.25
2022-11-21T04:53:43.168Z,99102.78
2022-11-21T04:56:14.862Z,99101.94
2022-11-21T04:58:44.874Z,99098.50
2022-11-21T05:01:13.729Z,99104.53
2022-11-21T05:03:41.909Z,99105.38
2022-11-21T05:06:10.022Z,99101.06
2022-11-21T05:08:38.440Z,99101.06
2022-11-21T05:11:24.388Z,99104.50
2022-11-21T05:13:56.038Z,99095.84
2022-11-21T05:16:24.428Z,99101.88
2022-11-21T05:18:52.913Z,99097.56
2022-11-21T05:21:21.384Z,99097.56
2022-11-21T05:23:49.465Z,99091.50
2022-11-21T05:26:17.769Z,99094.09
2022-11-21T05:28:47.868Z,99092.34
2022-11-21T05:31:17.388Z,99096.69
2022-11-21T05:33:45.699Z,99090.59
2022-11-21T05:36:14.064Z,99100.97
2022-11-21T05:38:42.173Z,99081.97
2022-11-21T05:41:10.570Z,99075.03
2022-11-21T05:43:47.230Z,99073.31
2022-11-21T05:46:19.606Z,99061.19
2022-11-21T05:48:49.424Z,99064.63
2022-11-21T05:51:18.559Z,99080.19
2022-11-21T05:53:47.171Z,99062.91
2022-11-21T05:56:18.776Z,99062.91
2022-11-21T05:58:47.402Z,99059.47
2022-11-21T06:01:39.481Z,99064.66
2022-11-21T06:04:07.421Z,99061.25
2022-11-21T06:06:36.694Z,99069.91
2022-11-21T06:09:06.040Z,99064.69
2022-11-21T06:11:37.736Z,99069.88
2022-11-21T06:14:07.312Z,99071.59
2022-11-21T06:16:36.938Z,99066.38
2022-11-21T06:19:05.504Z,99068.97
2022-11-21T06:21:37.603Z,99068.16
2022-11-21T06:24:06.576Z,99068.97
2022-11-21T06:26:34.822Z,99071.56
2022-11-21T06:29:03.414Z,99075.00
2022-11-21T06:31:32.049Z,99057.69
2022-11-21T06:34:01.720Z,99082.78
2022-11-21T06:36:30.086Z,99078.47
2022-11-21T06:38:58.468Z,99068.06
2022-11-21T06:41:30.517Z,99081.03
2022-11-21T06:44:01.065Z,99086.25
2022-11-21T06:46:29.599Z,99083.66
2022-11-21T06:48:58.034Z,99092.28
2022-11-21T06:51:27.792Z,99083.66
2022-11-21T06:53:58.703Z,99088.88
2022-11-21T06:56:28.377Z,99092.38
2022-11-21T06:58:57.541Z,99076.75
2022-11-21T07:01:26.356Z,99087.13
2022-11-21T07:04:00.785Z,99091.41
2022-11-21T07:06:30.641Z,99098.38
2022-11-21T07:09:31.532Z,99099.25
2022-11-21T07:11:47.261Z,99089.75
2022-11-21T07:14:14.605Z,99107.91
2022-11-21T07:16:42.793Z,99110.47
2022-11-21T07:19:11.935Z,99118.31
2022-11-21T07:21:43.300Z,99116.56
2022-11-21T07:24:11.639Z,99125.25
2022-11-21T07:26:40.291Z,99121.72
2022-11-21T07:29:08.687Z,99121.75
2022-11-21T07:31:37.081Z,99130.44
2022-11-21T07:34:05.641Z,99135.59
2022-11-21T07:36:36.412Z,99133.91
2022-11-21T07:39:06.844Z,99130.41
2022-11-21T07:41:35.252Z,99146.84
2022-11-21T07:44:03.743Z,99138.22
2022-11-21T07:46:32.344Z,99132.16
2022-11-21T07:49:03.262Z,99150.28
2022-11-21T07:51:32.332Z,99146.00
2022-11-21T07:54:00.769Z,99156.38
2022-11-21T07:56:30.581Z,99156.38
2022-11-21T07:58:58.736Z,99167.59
2022-11-21T08:01:27.231Z,99168.50
2022-11-21T08:03:55.496Z,99171.97
2022-11-21T08:06:23.839Z,99171.97
2022-11-21T08:08:55.635Z,99183.19
2022-11-21T08:11:23.752Z,99182.34
2022-11-21T08:13:53.708Z,99182.28
2022-11-21T08:16:23.062Z,99197.81
2022-11-21T08:18:51.639Z,99199.56
2022-11-21T08:21:20.330Z,99204.75
2022-11-21T08:23:48.826Z,99197.00
2022-11-21T08:26:17.514Z,99203.97
2022-11-21T08:28:46.035Z,99199.66
2022-11-21T08:31:15.646Z,99200.44
2022-11-21T08:33:43.920Z,99201.28
2022-11-21T08:36:12.342Z,99200.44
2022-11-21T08:38:40.622Z,99209.91
2022-11-21T08:41:26.054Z,99208.22
2022-11-21T08:43:54.655Z,99203.84
2022-11-21T08:46:27.429Z,99216.81
2022-11-21T08:48:56.390Z,99199.53
2022-11-21T08:51:24.787Z,99196.13
2022-11-21T08:53:52.947Z,99189.22
2022-11-21T08:56:21.426Z,99189.22
2022-11-21T08:58:49.739Z,99213.44
2022-11-21T09:01:18.205Z,99215.16
2022-11-21T09:03:48.366Z,99223.78
2022-11-21T09:06:16.525Z,99208.25
2022-11-21T09:08:44.651Z,99223.75
2022-11-21T09:11:13.168Z,99215.16
2022-11-21T09:13:41.269Z,99222.09
2022-11-21T09:16:30.288Z,99217.81
2022-11-21T09:19:00.048Z,99223.78
2022-11-21T09:21:28.219Z,99216.84
2022-11-21T09:23:56.843Z,99228.97
2022-11-21T09:26:25.146Z,99225.53
2022-11-21T09:28:53.461Z,99235.81
2022-11-21T09:31:21.859Z,99222.84
2022-11-21T09:33:54.769Z,99225.50
2022-11-21T09:36:24.876Z,99227.22
2022-11-21T09:38:54.106Z,99227.25
2022-11-21T09:41:50.685Z,99234.16
2022-11-21T09:44:41.507Z,99249.63
2022-11-21T09:47:23.239Z,99250.53
2022-11-21T09:49:58.213Z,99249.69
2022-11-21T09:52:38.609Z,99251.38
2022-11-21T09:55:15.212Z,99242.81
2022-11-21T09:57:44.135Z,99242.00
2022-11-21T10:00:20.922Z,99237.69
2022-11-21T10:02:49.751Z,99241.94
2022-11-21T10:05:18.611Z,99249.75
2022-11-21T10:07:49.138Z,99252.38
2022-11-21T10:10:30.955Z,99254.88
2022-11-21T10:13:15.254Z,99260.88
2022-11-21T10:15:57.834Z,99261.75
2022-11-21T10:19:13.442Z,99263.44
2022-11-21T10:22:11.313Z,99273.91
2022-11-21T10:24:50.415Z,99262.75
2022-11-21T10:27:22.720Z,99268.72
2022-11-21T10:29:55.088Z,99267.03
2022-11-21T10:32:27.393Z,99277.41
2022-11-21T10:35:00.888Z,99266.94
2022-11-21T10:37:41.226Z,99268.72
2022-11-21T10:40:29.695Z,99277.34
2022-11-21T10:43:22.381Z,99263.44
2022-11-21T10:45:50.200Z,99291.22
2022-11-21T10:48:18.669Z,99287.75
2022-11-21T10:51:02.356Z,99279.19
2022-11-21T10:53:49.270Z,99260.09
2022-11-21T10:56:21.843Z,99273.16
2022-11-21T10:58:51.726Z,99280.88
2022-11-21T11:01:26.249Z,99289.50
2022-11-21T11:04:27.879Z,99294.66
2022-11-21T11:07:23.670Z,99301.47
2022-11-21T11:09:53.812Z,99313.59
2022-11-21T11:12:47.049Z,99303.16
2022-11-21T11:15:21.491Z,99315.38
2022-11-21T11:18:02.741Z,99324.06
2022-11-21T11:20:38.021Z,99322.28
2022-11-21T11:23:25.458Z,99327.47
2022-11-21T11:25:55.004Z,99341.25
2022-11-21T11:28:25.279Z,99345.56
2022-11-21T11:30:56.209Z,99337.81
2022-11-21T11:33:33.102Z,99335.94
2022-11-21T11:36:16.589Z,99349.72
2022-11-21T11:38:49.719Z,99346.34
2022-11-21T11:41:58.024Z,99355.72
2022-11-21T11:44:55.599Z,99362.56
2022-11-21T11:47:32.667Z,99352.38
2022-11-21T11:50:13.627Z,99348.00
2022-11-21T11:52:51.804Z,99334.25
2022-11-21T11:55:25.130Z,99344.47
2022-11-21T11:57:56.614Z,99340.25
2022-11-21T12:00:34.996Z,99340.16
2022-11-21T12:03:09.889Z,99311.59
2022-11-21T12:05:43.250Z,99341.25
2022-11-21T12:08:41.437Z,99351.69
2022-11-21T12:11:35.905Z,99349.91
2022-11-21T12:14:34.840Z,99351.72
2022-11-21T12:17:07.987Z,99355.16
2022-11-21T12:19:37.467Z,99358.66
2022-11-21T12:22:07.889Z,99330.00
2022-11-21T12:24:42.521Z,99358.69
2022-11-21T12:27:23.360Z,99360.38
2022-11-21T12:30:08.705Z,99373.38
2022-11-21T12:32:55.903Z,99372.41
2022-11-21T12:35:44.511Z,99394.84
2022-11-21T12:38:24.979Z,99383.56
2022-11-21T12:41:32.478Z,99394.00
2022-11-21T12:44:10.062Z,99381.06
2022-11-21T12:46:49.474Z,99393.16
2022-11-21T12:49:54.412Z,99398.34
2022-11-21T12:52:48.354Z,99403.53
2022-11-21T12:55:40.601Z,99411.38
2022-11-21T12:58:23.652Z,99409.59
2022-11-21T13:01:05.040Z,99421.78
2022-11-21T13:03:48.059Z,99405.28
2022-11-21T13:06:23.264Z,99418.38
2022-11-21T13:08:53.473Z,99425.22
2022-11-21T13:11:55.476Z,99426.03
2022-11-21T13:14:31.036Z,99424.44
2022-11-21T13:17:23.697Z,99424.38
2022-11-21T13:19:56.864Z,99432.06
2022-11-21T13:22:55.794Z,99439.03
2022-11-21T13:25:42.473Z,99441.56
2022-11-21T13:28:39.112Z,99453.78
2022-11-21T13:31:33.142Z,99458.91
2022-11-21T13:34:02.256Z,99447.72
2022-11-21T13:36:46.506Z,99467.44
2022-11-21T13:39:39.321Z,99460.50
2022-11-21T13:42:29.694Z,99467.47
2022-11-21T13:44:58.614Z,99436.38
2022-11-21T13:47:56.404Z,99443.22
2022-11-21T13:50:43.720Z,99447.56
2022-11-21T13:53:41.478Z,99437.94
2022-11-21T13:56:27.807Z,99424.94
2022-11-21T13:59:08.531Z,99459.63
2022-11-21T14:02:01.828Z,99403.03
2022-11-21T14:05:09.517Z,99461.34
2022-11-21T14:07:41.212Z,99457.97
2022-11-21T14:10:21.409Z,99439.72
2022-11-21T14:12:52.812Z,99461.28
2022-11-21T14:15:29.187Z,99462.22
2022-11-21T14:18:14.811Z,99445.63
2022-11-21T14:20:58.118Z,99448.22
2022-11-21T14:23:30.545Z,99409.94
2022-11-21T14:26:03.714Z,99450.94
2022-11-21T14:28:35.580Z,99404.91
2022-11-21T14:31:07.005Z,99457.88
2022-11-21T14:33:37.847Z,99459.53
2022-11-21T14:36:09.033Z,99440.56
2022-11-21T14:38:43.612Z,99446.50
2022-11-21T14:41:27.824Z,99445.63
2022-11-21T14:44:16.451Z,99443.06
2022-11-21T14:46:47.407Z,99439.72
2022-11-21T14:49:32.733Z,99429.31
2022-11-21T14:52:07.961Z,99446.38
2022-11-21T14:55:06.083Z,99435.91
2022-11-21T14:57:37.925Z,99434.25
2022-11-21T15:00:10.357Z,99431.72
2022-11-21T15:02:39.333Z,99422.16
2022-11-21T15:05:09.778Z,99418.75
2022-11-21T15:07:47.336Z,99420.38
2022-11-21T15:10:32.899Z,99416.19
2022-11-21T15:13:05.018Z,99422.09
2022-11-21T15:15:38.729Z,99422.03
2022-11-21T15:18:27.330Z,99429.72
2022-11-21T15:21:10.055Z,99363.09
2022-11-21T15:23:40.652Z,99416.88
2022-11-21T15:26:28.204Z,99413.34
2022-11-21T15:28:57.604Z,99400.56
2022-11-21T15:31:27.633Z,99398.09
2022-11-21T15:37:05.469Z,99404.97
2022-11-21T15:39:36.121Z,99385.19
2022-11-21T15:42:46.907Z,99389.56
2022-11-21T15:45:27.388Z,99372.19
2022-11-21T15:47:57.635Z,99366.16
2022-11-21T15:50:27.110Z,99389.56
2022-11-21T15:52:58.075Z,99383.50
2022-11-21T15:55:29.455Z,99368.69
2022-11-21T15:57:57.742Z,99373.94
2022-11-21T16:00:26.360Z,99373.09
2022-11-21T16:02:54.729Z,99367.00
2022-11-21T16:05:24.493Z,99365.25
2022-11-21T16:07:52.862Z,99347.00
2022-11-21T16:10:27.501Z,99350.53
2022-11-21T16:12:57.314Z,99354.84
2022-11-21T16:15:25.657Z,99346.22
2022-11-21T16:17:54.148Z,99341.91
2022-11-21T16:20:24.121Z,99335.88
2022-11-21T16:22:52.663Z,99330.69
2022-11-21T16:25:21.066Z,99330.69
2022-11-21T16:27:49.429Z,99311.53
2022-11-21T16:30:19.034Z,99309.84
2022-11-21T16:32:47.998Z,99263.78
2022-11-21T16:35:17.019Z,99309.81
2022-11-21T16:37:48.354Z,99309.78
2022-11-21T16:40:17.168Z,99244.66
2022-11-21T16:42:46.955Z,99259.47
2022-11-21T16:45:15.711Z,99277.75
2022-11-21T16:47:48.575Z,99279.56
2022-11-21T16:50:17.837Z,99289.00
2022-11-21T16:52:49.581Z,99280.41
2022-11-21T16:55:19.008Z,99250.91
2022-11-21T16:57:47.236Z,99245.78
2022-11-21T17:00:16.537Z,99240.53
2022-11-21T17:02:47.228Z,99262.22
2022-11-21T17:05:17.906Z,99231.91
2022-11-21T17:07:51.675Z,99227.63
2022-11-21T17:10:20.151Z,99224.22
2022-11-21T17:12:48.580Z,99235.53
2022-11-21T17:15:17.405Z,99237.28
2022-11-21T17:17:45.706Z,99227.84
2022-11-21T17:20:17.553Z,99228.72
2022-11-21T17:22:51.524Z,99223.56
2022-11-21T17:25:20.229Z,99222.78
2022-11-21T17:27:48.389Z,99228.03
2022-11-21T17:30:23.321Z,99225.38
2022-11-21T17:32:54.787Z,99233.19
2022-11-21T17:35:23.613Z,99209.84
2022-11-21T17:37:53.765Z,99206.31
2022-11-21T17:40:22.071Z,99223.75
2022-11-21T17:42:50.884Z,99222.84
2022-11-21T17:45:19.533Z,99228.09
2022-11-21T17:47:47.809Z,99225.53
2022-11-21T17:50:16.214Z,99220.31
2022-11-21T17:52:47.061Z,99226.38
2022-11-21T17:55:17.219Z,99225.47
2022-11-21T17:57:47.098Z,99218.56
2022-11-21T18:00:17.188Z,99219.34
2022-11-21T18:02:47.243Z,99218.47
2022-11-21T18:05:15.962Z,99226.22
2022-11-21T18:07:44.882Z,99225.38
2022-11-21T18:10:41.421Z,99217.59
2022-11-21T18:13:10.318Z,99203.59
2022-11-21T18:15:38.929Z,99194.06
2022-11-21T18:18:07.686Z,99211.41
2022-11-21T18:20:36.423Z,99204.50
2022-11-21T18:23:04.668Z,99213.13
2022-11-21T18:25:37.038Z,99220.09
2022-11-21T18:28:08.013Z,99227.00
2022-11-21T18:30:36.531Z,99220.13
2022-11-21T18:33:04.805Z,99228.78
2022-11-21T18:35:33.351Z,99234.84
2022-11-21T18:38:01.724Z,99221.88
2022-11-21T18:40:30.266Z,99185.44
2022-11-21T18:42:58.673Z,99221.00
2022-11-21T18:45:28.453Z,99228.78
2022-11-21T18:47:57.499Z,99225.34
2022-11-21T18:50:25.921Z,99208.03
2022-11-21T18:52:55.221Z,99187.22
2022-11-21T18:55:23.700Z,99234.00
2022-11-21T18:57:52.619Z,99221.91
2022-11-21T19:00:22.089Z,99221.88
2022-11-21T19:02:51.928Z,99221.88
2022-11-21T19:05:20.796Z,99214.09
2022-11-21T19:07:49.760Z,99221.88
2022-11-21T19:10:42.002Z,99221.09
2022-11-21T19:13:08.290Z,99211.50
2022-11-21T19:15:38.724Z,99214.94
2022-11-21T19:18:09.049Z,99208.00
2022-11-21T19:20:39.229Z,99220.19
2022-11-21T19:23:11.362Z,99214.97
2022-11-21T19:25:39.790Z,99216.72
2022-11-21T19:28:08.363Z,99206.34
2022-11-21T19:30:37.728Z,99220.19
2022-11-21T19:33:06.868Z,99221.91
2022-11-21T19:35:38.648Z,99206.28
2022-11-21T19:38:07.583Z,99216.75
2022-11-21T19:40:56.574Z,99213.28
2022-11-21T19:43:25.086Z,99207.28
2022-11-21T19:45:57.985Z,99211.53
2022-11-21T19:48:29.170Z,99202.00
2022-11-21T19:51:00.395Z,99203.72
2022-11-21T19:53:30.311Z,99208.03
2022-11-21T19:55:58.907Z,99208.06
2022-11-21T19:58:27.645Z,99214.09
2022-11-21T20:00:55.890Z,99198.53
2022-11-21T20:03:24.712Z,99196.81
2022-11-21T20:05:53.263Z,99182.03
2022-11-21T20:08:23.787Z,99190.69
2022-11-21T20:10:52.411Z,99212.34
2022-11-21T20:13:20.751Z,99221.03
2022-11-21T20:15:49.560Z,99213.25
2022-11-21T20:18:19.649Z,99215.03
2022-11-21T20:20:53.547Z,99220.19
2022-11-21T20:23:25.009Z,99218.47
2022-11-21T20:25:59.165Z,99232.28
2022-11-21T20:28:29.046Z,99233.19
2022-11-21T20:31:05.678Z,99232.25
2022-11-21T20:33:38.690Z,99227.13
2022-11-21T20:36:08.530Z,99225.47
2022-11-21T20:38:39.020Z,99232.34
2022-11-21T20:41:07.297Z,99241.00
2022-11-21T20:44:03.182Z,99215.03
2022-11-21T20:46:24.347Z,99225.50
2022-11-21T20:48:52.899Z,99206.44
2022-11-21T20:52:31.479Z,99227.22
2022-11-21T20:54:11.822Z,99232.38
2022-11-21T20:56:44.158Z,99232.41
2022-11-21T20:59:14.126Z,99183.97
2022-11-21T21:01:42.893Z,99217.75
2022-11-21T21:04:12.348Z,99234.19
2022-11-21T21:06:40.935Z,99234.19
2022-11-21T21:09:10.688Z,99213.41
2022-11-21T21:11:54.153Z,99242.84
2022-11-21T21:14:23.084Z,99236.00
2022-11-21T21:16:51.601Z,99236.84
2022-11-21T21:19:20.622Z,99241.13
2022-11-21T21:21:49.512Z,99215.19
2022-11-21T21:24:19.292Z,99230.81
2022-11-21T21:26:50.015Z,99229.06
2022-11-21T21:29:20.834Z,99218.59
2022-11-21T21:31:52.246Z,99241.19
2022-11-21T21:34:22.124Z,99239.47
2022-11-21T21:36:51.041Z,99236.00
2022-11-21T21:39:21.541Z,99235.06
2022-11-21T21:41:50.623Z,99242.91
2022-11-21T21:44:21.084Z,99242.88
2022-11-21T21:46:49.439Z,99242.84
2022-11-21T21:49:18.029Z,99248.03
2022-11-21T21:51:46.250Z,99244.56
2022-11-21T21:54:21.030Z,99250.53
2022-11-21T21:56:49.775Z,99264.41
2022-11-21T21:59:18.507Z,99261.78
2022-11-21T22:01:47.221Z,99254.88
2022-11-21T22:04:15.662Z,99258.41
2022-11-21T22:06:44.063Z,99265.34
2022-11-21T22:09:12.638Z,99263.63
2022-11-21T22:11:42.486Z,99258.50
2022-11-21T22:14:13.638Z,99268.91
2022-11-21T22:16:42.920Z,99261.13
2022-11-21T22:19:11.614Z,99246.38
2022-11-21T22:21:40.904Z,99257.59
2022-11-21T22:24:29.498Z,99258.44
2022-11-21T22:26:59.634Z,99267.91
2022-11-21T22:29:27.998Z,99267.00
2022-11-21T22:32:02.572Z,99270.50
2022-11-21T22:34:32.238Z,99278.34
2022-11-21T22:37:01.735Z,99287.88
2022-11-21T22:39:30.224Z,99298.16
2022-11-21T22:42:01.375Z,99301.59
2022-11-21T22:44:29.760Z,99298.19
2022-11-21T22:47:00.680Z,99306.81
2022-11-21T22:49:28.943Z,99314.50
2022-11-21T22:51:57.175Z,99286.72
2022-11-21T22:54:25.794Z,99315.28
2022-11-21T22:56:54.104Z,99325.66
2022-11-21T22:59:23.776Z,99304.81
2022-11-21T23:01:52.266Z,99316.06
2022-11-21T23:04:20.453Z,99328.16
2022-11-21T23:06:48.751Z,99314.25
2022-11-21T23:09:20.441Z,99322.06
2022-11-21T23:11:48.812Z,99315.16
2022-11-21T23:14:18.070Z,99322.06
2022-11-21T23:16:47.838Z,99315.13
2022-11-21T23:19:16.292Z,99325.50
2022-11-21T23:21:44.822Z,99315.03
2022-11-21T23:24:13.804Z,99323.75
2022-11-21T23:26:42.088Z,99302.94
2022-11-21T23:29:10.760Z,99321.94
2022-11-21T23:31:39.391Z,99328.94
2022-11-21T23:34:11.501Z,99319.38
2022-11-21T23:36:40.688Z,99327.22
2022-11-21T23:39:09.384Z,99337.50
2022-11-21T23:41:38.614Z,99322.69
2022-11-21T23:44:08.048Z,99323.53
2022-11-21T23:46:36.848Z,99342.56
2022-11-21T23:49:07.572Z,99345.94
2022-11-21T23:51:39.249Z,99368.44
2022-11-21T23:54:07.602Z,99359.84
2022-11-21T23:56:35.922Z,99374.47
2022-11-21T23:59:04.520Z,99377.00
